香港からっっ!!!!

LUXURY FLIGHT

03-6423-7371

羽田本店:東京都大田区羽田5-11-1
営業時間:10:00~20:00
定休日:毎週 月曜日
セントレア店:愛知県常滑市セントレア1-1
営業時間:10:00~20:00 年中無休

lv

香港からっっ!!!!

STAFF BLOG

2019/07/25 香港からっっ!!!!

こにゃにゃちはーーーーーーーー

 

 

梅雨明けしそうでしない東京羽田の今日のMETARは…

RJTT 250200Z 18010KT 9999 FEW030 30/25 Q1010 NOSIG RMK 1CU030 A2983

 

 

天気は良好

それに伴いまして、スタッフも絶好調

 

 

本日もフルスロットル営業中です

 

 

今日は香港からのお客様

 

キッズキャプテンに埋め尽くされたコックピットは、夢が溢れてていい感じです

 

 

img_2440

 

 

飛行機が怖いという子も中にはいましたが、

いざ操縦桿を握ると、そんな恐怖もすっ飛んでいったのか、めちゃめちゃナイスなランディングをしてくれました

 

 

もちろん、この間のやり取りは全て英語

弊社の中には英語に長けている者も多くおりますが、

私にはボディランゲージと熱い魂しかございません。笑

 

 

私の語彙は YES! /NO!!/ Aha!!/ Excellent!! /ナイスランディング!!くらいしかなく…

むしろナイスランディングはほぼ日本語でして…笑

 

これで世界と戦っている(?)私をどうか笑ってやってください。

 

 

…社長、ポケトーク買ってくれないかな。笑

 

 

 

そんな、様々な思いが巡るフライトでしたーーーーー

 

 

この度のご来店誠にありがとうございました。

次回のご来店も心よりお待ち致しております。

 

また、いつもブログを読んでくださり本当にありがとうございます。

 

「感謝」

TOP